createdAt,value
2018-05-26T00:01:22.326Z,5.73
2018-05-26T00:06:15.617Z,6.47
2018-05-26T00:11:09.662Z,8.37
2018-05-26T00:16:02.960Z,5.80
2018-05-26T00:20:56.265Z,5.80
2018-05-26T00:25:50.325Z,6.83
2018-05-26T00:30:43.618Z,4.67
2018-05-26T00:35:36.907Z,5.30
2018-05-26T00:40:30.193Z,5.13
2018-05-26T00:45:24.260Z,4.63
2018-05-26T00:50:17.544Z,8.17
2018-05-26T00:55:10.837Z,5.57
2018-05-26T01:00:04.135Z,5.67
2018-05-26T01:04:58.180Z,6.10
2018-05-26T01:09:51.469Z,4.97
2018-05-26T01:14:44.766Z,4.50
2018-05-26T01:19:38.815Z,4.10
2018-05-26T01:24:32.113Z,3.73
2018-05-26T01:29:25.448Z,4.83
2018-05-26T01:34:18.733Z,5.27
2018-05-26T01:39:12.016Z,7.67
2018-05-26T01:44:05.344Z,5.50
2018-05-26T01:48:58.625Z,5.20
2018-05-26T01:53:51.928Z,7.77
2018-05-26T01:58:45.213Z,5.80
2018-05-26T02:03:38.514Z,5.00
2018-05-26T02:08:31.797Z,4.50
2018-05-26T02:13:25.077Z,5.90
2018-05-26T02:18:18.374Z,7.03
2018-05-26T02:23:11.682Z,4.10
2018-05-26T02:28:05.717Z,4.40
2018-05-26T02:32:59.022Z,4.53
2018-05-26T02:37:52.322Z,4.27
2018-05-26T02:42:46.455Z,4.00
2018-05-26T02:47:39.698Z,4.80
2018-05-26T02:52:33.828Z,7.27
2018-05-26T02:57:27.761Z,6.17
2018-05-26T03:02:21.065Z,4.33
2018-05-26T03:07:23.370Z,4.93
2018-05-26T03:12:22.057Z,4.93
2018-05-26T03:17:27.810Z,5.03
2018-05-26T03:22:21.095Z,5.57
2018-05-26T03:27:14.413Z,5.90
2018-05-26T03:32:07.717Z,5.30
2018-05-26T03:37:01.004Z,5.37
2018-05-26T03:41:54.305Z,6.30
2018-05-26T03:46:48.368Z,9.17
2018-05-26T03:51:41.661Z,11.77
2018-05-26T03:56:52.508Z,11.43
2018-05-26T04:01:45.777Z,9.17
2018-05-26T04:06:39.091Z,9.77
2018-05-26T04:11:32.385Z,5.50
2018-05-26T04:16:25.674Z,5.70
2018-05-26T04:21:18.954Z,6.30
2018-05-26T04:26:13.006Z,5.70
2018-05-26T04:31:06.295Z,5.07
2018-05-26T04:35:59.581Z,5.82
2018-05-26T04:40:52.864Z,4.85
2018-05-26T04:45:46.160Z,5.72
2018-05-26T04:50:40.209Z,5.62
2018-05-26T04:55:33.492Z,7.53
2018-05-26T05:00:26.789Z,5.70
2018-05-26T05:05:20.073Z,5.30
2018-05-26T05:10:13.350Z,4.80
2018-05-26T05:15:06.634Z,5.60
2018-05-26T05:19:59.926Z,5.78
2018-05-26T05:24:53.972Z,5.68
2018-05-26T05:29:47.252Z,5.65
2018-05-26T05:34:40.542Z,7.35
2018-05-26T05:39:33.841Z,5.40
2018-05-26T05:44:27.166Z,5.65
2018-05-26T05:49:20.466Z,6.25
2018-05-26T05:54:13.763Z,6.45
2018-05-26T05:59:07.061Z,6.53
2018-05-26T06:04:00.354Z,7.37
2018-05-26T06:08:53.658Z,8.32
2018-05-26T06:13:46.957Z,7.93
2018-05-26T06:18:40.245Z,8.57
2018-05-26T06:23:33.542Z,8.13
2018-05-26T06:28:27.589Z,9.63
2018-05-26T06:33:20.889Z,7.50
2018-05-26T06:38:14.173Z,9.27
2018-05-26T06:43:07.477Z,6.30
2018-05-26T06:48:01.533Z,6.97
2018-05-26T06:52:54.821Z,6.20
2018-05-26T06:57:48.121Z,9.95
2018-05-26T07:02:42.195Z,6.45
2018-05-26T07:07:35.476Z,4.93
2018-05-26T07:12:28.775Z,4.28
2018-05-26T07:17:22.833Z,4.10
2018-05-26T07:22:16.109Z,4.43
2018-05-26T07:27:09.397Z,5.00
2018-05-26T07:32:02.679Z,5.70
2018-05-26T07:36:55.965Z,7.03
2018-05-26T07:41:49.247Z,6.45
2018-05-26T07:46:42.622Z,5.53
2018-05-26T07:51:35.957Z,6.65
2018-05-26T07:56:29.281Z,6.07
2018-05-26T08:01:22.547Z,5.37
2018-05-26T08:06:15.849Z,7.60
2018-05-26T08:11:09.169Z,6.10
2018-05-26T08:16:02.465Z,5.68
2018-05-26T08:20:55.781Z,5.65
2018-05-26T08:25:49.838Z,8.60
2018-05-26T08:30:43.133Z,7.45
2018-05-26T08:35:36.421Z,5.90
2018-05-26T08:40:29.734Z,4.65
2018-05-26T08:45:23.036Z,6.57
2018-05-26T08:50:16.329Z,5.40
2018-05-26T08:55:09.626Z,6.05
2018-05-26T09:00:02.926Z,6.18
2018-05-26T09:04:56.982Z,8.70
2018-05-26T09:09:55.878Z,8.02
2018-05-26T09:14:49.446Z,6.78
2018-05-26T09:19:42.733Z,5.50
2018-05-26T09:24:36.036Z,6.32
2018-05-26T09:29:29.341Z,7.43
2018-05-26T09:34:23.396Z,5.57
2018-05-26T09:39:16.695Z,7.53
2018-05-26T09:44:09.993Z,4.57
2018-05-26T09:49:04.043Z,5.20
2018-05-26T09:53:57.384Z,7.65
2018-05-26T09:58:50.717Z,5.35
2018-05-26T10:03:44.005Z,4.60
2018-05-26T10:08:37.291Z,4.32
2018-05-26T10:13:31.417Z,4.53
2018-05-26T10:18:24.650Z,5.22
2018-05-26T10:23:17.948Z,4.80
2018-05-26T10:28:12.001Z,6.78
2018-05-26T10:33:05.341Z,3.97
2018-05-26T10:37:58.636Z,5.95
2018-05-26T10:42:51.954Z,5.25
2018-05-26T10:47:45.239Z,5.65
2018-05-26T10:52:38.528Z,5.50
2018-05-26T10:57:32.582Z,6.18
2018-05-26T11:02:25.869Z,4.05
2018-05-26T11:07:19.172Z,5.85
2018-05-26T11:12:12.461Z,4.18
2018-05-26T11:17:06.537Z,7.60
2018-05-26T11:21:59.821Z,5.03
2018-05-26T11:26:53.902Z,4.28
2018-05-26T11:31:47.177Z,6.05
2018-05-26T11:36:40.477Z,5.80
2018-05-26T11:41:34.673Z,4.18
2018-05-26T11:46:28.726Z,5.35
2018-05-26T11:51:22.051Z,4.68
2018-05-26T11:56:16.107Z,5.45
2018-05-26T12:01:09.402Z,5.15
2018-05-26T12:06:02.694Z,2.70
2018-05-26T12:10:55.983Z,3.03
2018-05-26T12:15:50.041Z,2.60
2018-05-26T12:20:43.334Z,3.05
2018-05-26T12:25:36.629Z,2.50
2018-05-26T12:30:30.694Z,3.00
2018-05-26T12:35:23.987Z,4.32
2018-05-26T12:40:17.270Z,3.08
2018-05-26T12:45:10.548Z,4.03
2018-05-26T12:50:03.856Z,3.12
2018-05-26T12:54:57.147Z,2.67
2018-05-26T12:59:50.509Z,4.85
2018-05-26T13:04:43.748Z,3.15
2018-05-26T13:09:37.046Z,3.30
2018-05-26T13:14:31.105Z,4.05
2018-05-26T13:19:24.411Z,4.45
2018-05-26T13:24:18.488Z,3.78
2018-05-26T13:29:11.773Z,3.33
2018-05-26T13:34:05.129Z,3.10
2018-05-26T13:38:58.413Z,2.87
2018-05-26T13:43:52.550Z,3.12
2018-05-26T13:48:46.605Z,2.92
2018-05-26T13:53:39.947Z,4.75
2018-05-26T13:58:33.191Z,4.10
2018-05-26T14:03:27.247Z,2.83
2018-05-26T14:08:20.538Z,4.97
2018-05-26T14:13:13.825Z,2.95
2018-05-26T14:18:07.153Z,4.95
2018-05-26T14:23:00.466Z,4.15
2018-05-26T14:27:53.757Z,4.85
2018-05-26T14:32:47.052Z,2.85
2018-05-26T14:37:41.109Z,2.75
2018-05-26T14:42:34.401Z,2.75
2018-05-26T14:47:27.688Z,2.60
2018-05-26T14:52:21.006Z,2.50
2018-05-26T14:57:14.301Z,2.97
2018-05-26T15:02:07.602Z,4.80
2018-05-26T15:07:00.925Z,3.47
2018-05-26T15:11:54.274Z,4.30
2018-05-26T15:16:47.576Z,3.67
2018-05-26T15:21:41.665Z,4.85
2018-05-26T15:26:35.728Z,3.85
2018-05-26T15:31:29.048Z,7.70
2018-05-26T15:36:23.114Z,3.03
2018-05-26T15:41:16.488Z,3.08
2018-05-26T15:46:09.809Z,3.40
2018-05-26T15:51:03.868Z,4.30
2018-05-26T15:55:57.148Z,3.42
2018-05-26T16:00:50.454Z,4.03
2018-05-26T16:05:44.532Z,3.92
2018-05-26T16:10:37.809Z,3.97
2018-05-26T16:15:31.101Z,3.58
2018-05-26T16:20:24.390Z,3.15
2018-05-26T16:25:17.693Z,3.45
2018-05-26T16:30:10.994Z,4.87
2018-05-26T16:35:04.294Z,3.45
2018-05-26T16:39:57.584Z,5.70
2018-05-26T16:44:51.660Z,3.90
2018-05-26T16:49:44.946Z,3.80
2018-05-26T16:54:38.241Z,4.82
2018-05-26T16:59:32.294Z,3.20
2018-05-26T17:04:26.383Z,2.95
2018-05-26T17:09:19.663Z,3.30
2018-05-26T17:14:12.949Z,3.65
2018-05-26T17:19:06.238Z,3.12
2018-05-26T17:23:59.525Z,4.00
2018-05-26T17:28:52.797Z,4.20
2018-05-26T17:33:46.078Z,3.33
2018-05-26T17:38:39.380Z,4.32
2018-05-26T17:43:33.429Z,3.58
2018-05-26T17:48:26.726Z,4.03
2018-05-26T17:53:20.005Z,4.18
2018-05-26T17:58:13.303Z,5.20
2018-05-26T18:03:07.448Z,3.42
2018-05-26T18:08:00.714Z,6.05
2018-05-26T18:12:53.998Z,3.80
2018-05-26T18:17:47.284Z,3.78
2018-05-26T18:22:40.616Z,3.87
2018-05-26T18:27:33.914Z,4.00
2018-05-26T18:32:27.226Z,3.25
2018-05-26T18:37:20.528Z,3.80
2018-05-26T18:42:13.809Z,3.20
2018-05-26T18:47:07.862Z,7.93
2018-05-26T18:52:01.157Z,3.90
2018-05-26T18:56:54.445Z,3.67
2018-05-26T19:01:47.785Z,5.65
2018-05-26T19:06:41.095Z,5.53
2018-05-26T19:11:34.409Z,5.95
2018-05-26T19:16:27.724Z,3.40
2018-05-26T19:21:21.010Z,4.18
2018-05-26T19:26:14.282Z,4.43
2018-05-26T19:31:07.568Z,4.57
2018-05-26T19:36:00.848Z,5.97
2018-05-26T19:40:54.116Z,5.07
2018-05-26T19:45:47.429Z,6.22
2018-05-26T19:50:40.751Z,5.93
2018-05-26T19:55:34.041Z,4.12
2018-05-26T20:00:27.334Z,5.37
2018-05-26T20:05:20.634Z,6.35
2018-05-26T20:10:13.925Z,5.15
2018-05-26T20:15:07.974Z,5.40
2018-05-26T20:20:01.259Z,4.50
2018-05-26T20:24:54.564Z,4.82
2018-05-26T20:29:47.853Z,7.10
2018-05-26T20:34:41.906Z,5.80
2018-05-26T20:39:35.193Z,6.00
2018-05-26T20:44:28.505Z,7.93
2018-05-26T20:49:22.562Z,5.65
2018-05-26T20:54:15.838Z,3.13
2018-05-26T20:59:09.142Z,9.25
2018-05-26T21:04:02.434Z,12.37
2018-05-26T21:08:56.552Z,8.60
2018-05-26T21:13:49.859Z,5.95
2018-05-26T21:18:43.153Z,5.60
2018-05-26T21:23:36.509Z,5.85
2018-05-26T21:28:29.809Z,7.03
2018-05-26T21:33:23.086Z,5.97
2018-05-26T21:38:16.378Z,5.90
2018-05-26T21:43:09.681Z,9.73
2018-05-26T21:48:03.743Z,6.32
2018-05-26T21:52:57.013Z,6.62
2018-05-26T21:57:50.339Z,7.22
2018-05-26T22:02:43.637Z,6.93
2018-05-26T22:07:36.938Z,7.65
2018-05-26T22:12:30.839Z,6.30
2018-05-26T22:17:24.133Z,6.00
2018-05-26T22:22:17.421Z,6.00
2018-05-26T22:27:10.745Z,7.60
2018-05-26T22:32:04.021Z,7.43
2018-05-26T22:36:57.305Z,5.93
2018-05-26T22:41:50.661Z,6.07
2018-05-26T22:46:43.946Z,7.20
2018-05-26T22:51:37.220Z,5.07
2018-05-26T22:56:30.508Z,6.57
2018-05-26T23:01:23.802Z,5.60
2018-05-26T23:06:17.089Z,6.93
2018-05-26T23:11:10.430Z,6.17
2018-05-26T23:16:03.733Z,6.07
2018-05-26T23:20:57.017Z,6.90
2018-05-26T23:25:50.301Z,7.30
2018-05-26T23:30:43.590Z,6.20
2018-05-26T23:35:36.880Z,5.80
2018-05-26T23:40:30.171Z,6.80
2018-05-26T23:45:24.233Z,7.03
2018-05-26T23:50:17.511Z,7.40
2018-05-26T23:55:10.862Z,6.43
